PWSweather.com
Personal Weather Stations
Station Observations
KV9EWX
Winnebago, Il, Winnebago, IL 61088

Winnebago, IlWinnebago, IL 61088

Lat: 42.261175, Lon: -89.236369

Elevation: 892

Station Type: Lacrosse ws-2811

Latest ConditionsUpdated 3:22:50 AM CST Thursday, Feb 23, 2017
Currently Today's Max Today's Min Today's Average
Temperature 41.2°F5.1°C 45.0°F7.2°C 41.0°F5.0°C 42.6°F5.9°C
Dew Point -40.0°F-40.0°C -37.6°F-38.7°C -40.2°F-40.1°C -39.1°F-39.5°C
Winds 5.6 mph W9.0 kmh W 7.0 mph W11.3 kmh W - 3.3 mph 5.3 kmh
Wind Gusts 12.1 mph19.5 kmh 12.1 mph19.5 kmh - -
Humidity 1% 1% 1% 1%
Pressure 29.30 in992.2 mb 29.30 in992.2 mb 29.24 in990.2 mb -
Hour Temp Dew Point Humidity Winds Wind Gusts Pressure Precip Precip Rate Daily Precip Total
03:22 AM 41.2°F5.1°C -40.0°F-40.0°C 1% 4.9 mph W7.9 kmh W 12.1 mph19.5 kmh 29.30 in992.2 mb 0.00 in0.0 mm 0.00 in0.0 mm 0.00 in0.0 mm
03:21 AM 41.2°F5.1°C -40.0°F-40.0°C 1% 4.5 mph W7.2 kmh W 12.1 mph19.5 kmh 29.30 in992.2 mb 0.00 in0.0 mm 0.00 in0.0 mm 0.00 in0.0 mm
03:20 AM 41.2°F5.1°C -40.0°F-40.0°C 1% 4.0 mph W6.4 kmh W 12.1 mph19.5 kmh 29.29 in991.9 mb 0.00 in0.0 mm 0.00 in0.0 mm 0.00 in0.0 mm
03:19 AM 41.2°F5.1°C -40.0°F-40.0°C 1% 4.9 mph WNW7.9 kmh WNW 12.1 mph19.5 kmh 29.29 in991.9 mb 0.00 in0.0 mm 0.00 in0.0 mm 0.00 in0.0 mm
03:18 AM 41.4°F5.2°C -39.9°F-39.9°C 1% 6.7 mph W10.8 kmh W 12.1 mph19.5 kmh 29.29 in991.9 mb 0.00 in0.0 mm 0.00 in0.0 mm 0.00 in0.0 mm
03:17 AM 41.2°F5.1°C -40.0°F-40.0°C 1% 5.8 mph W9.3 kmh W 12.1 mph19.5 kmh 29.29 in991.9 mb 0.00 in0.0 mm 0.00 in0.0 mm 0.00 in0.0 mm
03:16 AM 41.2°F5.1°C -40.0°F-40.0°C 1% 4.2 mph WSW6.8 kmh WSW 9.4 mph15.1 kmh 29.29 in991.9 mb 0.00 in0.0 mm 0.00 in0.0 mm 0.00 in0.0 mm
03:15 AM 41.2°F5.1°C -40.0°F-40.0°C 1% 3.6 mph WSW5.8 kmh WSW 9.4 mph15.1 kmh 29.29 in991.9 mb 0.00 in0.0 mm 0.00 in0.0 mm 0.00 in0.0 mm
03:14 AM 41.2°F5.1°C -40.0°F-40.0°C 1% 3.9 mph W6.3 kmh W 9.4 mph15.1 kmh 29.29 in991.9 mb 0.00 in0.0 mm 0.00 in0.0 mm 0.00 in0.0 mm
03:13 AM 41.2°F5.1°C -40.0°F-40.0°C 1% 4.1 mph W6.6 kmh W 9.4 mph15.1 kmh 29.29 in991.9 mb 0.00 in0.0 mm 0.00 in0.0 mm 0.00 in0.0 mm
03:12 AM 41.2°F5.1°C -40.0°F-40.0°C 1% 4.6 mph W7.4 kmh W 9.4 mph15.1 kmh 29.29 in991.9 mb 0.00 in0.0 mm 0.00 in0.0 mm 0.00 in0.0 mm
03:11 AM 41.2°F5.1°C -40.0°F-40.0°C 1% 5.8 mph W9.3 kmh W 9.4 mph15.1 kmh 29.29 in991.9 mb 0.00 in0.0 mm 0.00 in0.0 mm 0.00 in0.0 mm
03:10 AM 41.2°F5.1°C -40.0°F-40.0°C 1% 6.1 mph W9.8 kmh W 9.4 mph15.1 kmh 29.29 in991.9 mb 0.00 in0.0 mm 0.00 in0.0 mm 0.00 in0.0 mm
03:09 AM 41.2°F5.1°C -40.0°F-40.0°C 1% 6.0 mph W9.7 kmh W 9.4 mph15.1 kmh 29.29 in991.9 mb 0.00 in0.0 mm 0.00 in0.0 mm 0.00 in0.0 mm
03:08 AM 41.4°F5.2°C -39.9°F-39.9°C 1% 4.6 mph W7.4 kmh W 9.4 mph15.1 kmh 29.29 in991.9 mb 0.00 in0.0 mm 0.00 in0.0 mm 0.00 in0.0 mm
03:07 AM 41.4°F5.2°C -39.9°F-39.9°C 1% 3.6 mph WSW5.8 kmh WSW 8.6 mph13.8 kmh 29.29 in991.9 mb 0.00 in0.0 mm 0.00 in0.0 mm 0.00 in0.0 mm
03:06 AM 41.4°F5.2°C -39.9°F-39.9°C 1% 4.0 mph W6.4 kmh W 8.6 mph13.8 kmh 29.29 in991.9 mb 0.00 in0.0 mm 0.00 in0.0 mm 0.00 in0.0 mm
03:05 AM 41.4°F5.2°C -39.9°F-39.9°C 1% 4.6 mph W7.4 kmh W 8.6 mph13.8 kmh 29.29 in991.9 mb 0.00 in0.0 mm 0.00 in0.0 mm 0.00 in0.0 mm
03:04 AM 41.4°F5.2°C -39.9°F-39.9°C 1% 4.6 mph WNW7.4 kmh WNW 8.6 mph13.8 kmh 29.29 in991.9 mb 0.00 in0.0 mm 0.00 in0.0 mm 0.00 in0.0 mm
03:03 AM 41.4°F5.2°C -39.9°F-39.9°C 1% 4.2 mph WNW6.8 kmh WNW 7.9 mph12.7 kmh 29.29 in991.9 mb 0.00 in0.0 mm 0.00 in0.0 mm 0.00 in0.0 mm
03:02 AM 41.2°F5.1°C -40.0°F-40.0°C 1% 3.6 mph W5.8 kmh W 8.2 mph13.2 kmh 29.29 in991.9 mb 0.00 in0.0 mm 0.00 in0.0 mm 0.00 in0.0 mm
03:01 AM 41.2°F5.1°C -40.0°F-40.0°C 1% 3.7 mph W6.0 kmh W 8.2 mph13.2 kmh 29.29 in991.9 mb 0.00 in0.0 mm 0.00 in0.0 mm 0.00 in0.0 mm
03:00 AM 41.4°F5.2°C -39.9°F-39.9°C 1% 4.8 mph W7.7 kmh W 8.2 mph13.2 kmh 29.29 in991.9 mb 0.00 in0.0 mm 0.00 in0.0 mm 0.00 in0.0 mm
02:59 AM 41.4°F5.2°C -39.9°F-39.9°C 1% 4.3 mph W6.9 kmh W 8.2 mph13.2 kmh 29.29 in991.9 mb 0.00 in0.0 mm 0.00 in0.0 mm 0.00 in0.0 mm
02:58 AM 41.2°F5.1°C -40.0°F-40.0°C 1% 3.9 mph W6.3 kmh W 8.2 mph13.2 kmh 29.28 in991.5 mb 0.00 in0.0 mm 0.00 in0.0 mm 0.00 in0.0 mm
02:57 AM 41.2°F5.1°C -40.0°F-40.0°C 1% 4.2 mph W6.8 kmh W 8.2 mph13.2 kmh 29.29 in991.9 mb 0.00 in0.0 mm 0.00 in0.0 mm 0.00 in0.0 mm
02:56 AM 41.2°F5.1°C -40.0°F-40.0°C 1% 4.1 mph W6.6 kmh W 8.2 mph13.2 kmh 29.29 in991.9 mb 0.00 in0.0 mm 0.00 in0.0 mm 0.00 in0.0 mm
02:55 AM 41.2°F5.1°C -40.0°F-40.0°C 1% 4.3 mph WNW6.9 kmh WNW 8.2 mph13.2 kmh 29.28 in991.5 mb 0.00 in0.0 mm 0.00 in0.0 mm 0.00 in0.0 mm
02:54 AM 41.2°F5.1°C -40.0°F-40.0°C 1% 4.9 mph WNW7.9 kmh WNW 8.2 mph13.2 kmh 29.28 in991.5 mb 0.00 in0.0 mm 0.00 in0.0 mm 0.00 in0.0 mm
02:53 AM 41.4°F5.2°C -39.9°F-39.9°C 1% 4.8 mph W7.7 kmh W 8.2 mph13.2 kmh 29.28 in991.5 mb 0.00 in0.0 mm 0.00 in0.0 mm 0.00 in0.0 mm
02:52 AM 41.2°F5.1°C -40.0°F-40.0°C 1% 4.9 mph W7.9 kmh W 8.2 mph13.2 kmh 29.28 in991.5 mb 0.00 in0.0 mm 0.00 in0.0 mm 0.00 in0.0 mm
02:51 AM 41.2°F5.1°C -40.0°F-40.0°C 1% 4.5 mph W7.2 kmh W 8.2 mph13.2 kmh 29.28 in991.5 mb 0.00 in0.0 mm 0.00 in0.0 mm 0.00 in0.0 mm
02:50 AM 41.2°F5.1°C -40.0°F-40.0°C 1% 3.9 mph W6.3 kmh W 8.2 mph13.2 kmh 29.28 in991.5 mb 0.00 in0.0 mm 0.00 in0.0 mm 0.00 in0.0 mm
02:49 AM 41.2°F5.1°C -40.0°F-40.0°C 1% 3.3 mph W5.3 kmh W 6.3 mph10.1 kmh 29.28 in991.5 mb 0.00 in0.0 mm 0.00 in0.0 mm 0.00 in0.0 mm
02:48 AM 41.0°F5.0°C -40.2°F-40.1°C 1% 3.3 mph W5.3 kmh W 6.3 mph10.1 kmh 29.28 in991.5 mb 0.00 in0.0 mm 0.00 in0.0 mm 0.00 in0.0 mm
02:47 AM 41.0°F5.0°C -40.2°F-40.1°C 1% 3.4 mph W5.5 kmh W 6.3 mph10.1 kmh 29.28 in991.5 mb 0.00 in0.0 mm 0.00 in0.0 mm 0.00 in0.0 mm
02:46 AM 41.2°F5.1°C -40.0°F-40.0°C 1% 3.0 mph W4.8 kmh W 6.3 mph10.1 kmh 29.28 in991.5 mb 0.00 in0.0 mm 0.00 in0.0 mm 0.00 in0.0 mm
02:45 AM 41.2°F5.1°C -40.0°F-40.0°C 1% 3.1 mph W5.0 kmh W 6.3 mph10.1 kmh 29.28 in991.5 mb 0.00 in0.0 mm 0.00 in0.0 mm 0.00 in0.0 mm
02:44 AM 41.2°F5.1°C -40.0°F-40.0°C 1% 3.3 mph W5.3 kmh W 6.3 mph10.1 kmh 29.28 in991.5 mb 0.00 in0.0 mm 0.00 in0.0 mm 0.00 in0.0 mm
02:43 AM 41.2°F5.1°C -40.0°F-40.0°C 1% 3.6 mph WSW5.8 kmh WSW 7.0 mph11.3 kmh 29.28 in991.5 mb 0.00 in0.0 mm 0.00 in0.0 mm 0.00 in0.0 mm
02:42 AM 41.2°F5.1°C -40.0°F-40.0°C 1% 3.5 mph W5.6 kmh W 8.2 mph13.2 kmh 29.28 in991.5 mb 0.00 in0.0 mm 0.00 in0.0 mm 0.00 in0.0 mm
02:41 AM 41.2°F5.1°C -40.0°F-40.0°C 1% 2.9 mph W4.7 kmh W 8.2 mph13.2 kmh 29.28 in991.5 mb 0.00 in0.0 mm 0.00 in0.0 mm 0.00 in0.0 mm
02:40 AM 41.2°F5.1°C -40.0°F-40.0°C 1% 2.4 mph W3.9 kmh W 8.2 mph13.2 kmh 29.28 in991.5 mb 0.00 in0.0 mm 0.00 in0.0 mm 0.00 in0.0 mm
02:39 AM 41.2°F5.1°C -40.0°F-40.0°C 1% 2.3 mph W3.7 kmh W 8.2 mph13.2 kmh 29.28 in991.5 mb 0.00 in0.0 mm 0.00 in0.0 mm 0.00 in0.0 mm
02:38 AM 41.2°F5.1°C -40.0°F-40.0°C 1% 2.1 mph WNW3.4 kmh WNW 8.2 mph13.2 kmh 29.29 in991.9 mb 0.00 in0.0 mm 0.00 in0.0 mm 0.00 in0.0 mm
02:37 AM 41.2°F5.1°C -40.0°F-40.0°C 1% 1.9 mph WNW3.1 kmh WNW 8.2 mph13.2 kmh 29.28 in991.5 mb 0.00 in0.0 mm 0.00 in0.0 mm 0.00 in0.0 mm
02:36 AM 41.2°F5.1°C -40.0°F-40.0°C 1% 2.0 mph WNW3.2 kmh WNW 8.2 mph13.2 kmh 29.28 in991.5 mb 0.00 in0.0 mm 0.00 in0.0 mm 0.00 in0.0 mm
02:35 AM 41.2°F5.1°C -40.0°F-40.0°C 1% 2.5 mph W4.0 kmh W 8.2 mph13.2 kmh 29.28 in991.5 mb 0.00 in0.0 mm 0.00 in0.0 mm 0.00 in0.0 mm
02:34 AM 41.4°F5.2°C -39.9°F-39.9°C 1% 4.0 mph W6.4 kmh W 8.2 mph13.2 kmh 29.28 in991.5 mb 0.00 in0.0 mm 0.00 in0.0 mm 0.00 in0.0 mm
02:33 AM 41.4°F5.2°C -39.9°F-39.9°C 1% 4.0 mph W6.4 kmh W 8.2 mph13.2 kmh 29.28 in991.5 mb 0.00 in0.0 mm 0.00 in0.0 mm 0.00 in0.0 mm
02:32 AM 41.4°F5.2°C -39.9°F-39.9°C 1% 3.2 mph W5.1 kmh W 7.5 mph12.1 kmh 29.28 in991.5 mb 0.00 in0.0 mm 0.00 in0.0 mm 0.00 in0.0 mm
02:31 AM 41.4°F5.2°C -39.9°F-39.9°C 1% 3.4 mph WNW5.5 kmh WNW 7.5 mph12.1 kmh 29.28 in991.5 mb 0.00 in0.0 mm 0.00 in0.0 mm 0.00 in0.0 mm
02:30 AM 41.4°F5.2°C -39.9°F-39.9°C 1% 3.0 mph W4.8 kmh W 7.5 mph12.1 kmh 29.28 in991.5 mb 0.00 in0.0 mm 0.00 in0.0 mm 0.00 in0.0 mm
02:29 AM 41.4°F5.2°C -39.9°F-39.9°C 1% 4.1 mph NW6.6 kmh NW 7.5 mph12.1 kmh 29.28 in991.5 mb 0.00 in0.0 mm 0.00 in0.0 mm 0.00 in0.0 mm
02:28 AM 41.4°F5.2°C -39.9°F-39.9°C 1% 4.5 mph NW7.2 kmh NW 7.5 mph12.1 kmh 29.28 in991.5 mb 0.00 in0.0 mm 0.00 in0.0 mm 0.00 in0.0 mm
02:27 AM 41.4°F5.2°C -39.9°F-39.9°C 1% 2.8 mph W4.5 kmh W 6.0 mph9.7 kmh 29.28 in991.5 mb 0.00 in0.0 mm 0.00 in0.0 mm 0.00 in0.0 mm
02:26 AM 41.4°F5.2°C -39.9°F-39.9°C 1% 2.3 mph W3.7 kmh W 6.0 mph9.7 kmh 29.29 in991.9 mb 0.00 in0.0 mm 0.00 in0.0 mm 0.00 in0.0 mm
02:25 AM 41.4°F5.2°C -39.9°F-39.9°C 1% 2.5 mph W4.0 kmh W 6.3 mph10.1 kmh 29.28 in991.5 mb 0.00 in0.0 mm 0.00 in0.0 mm 0.00 in0.0 mm
02:24 AM 41.4°F5.2°C -39.9°F-39.9°C 1% 2.9 mph W4.7 kmh W 6.3 mph10.1 kmh 29.28 in991.5 mb 0.00 in0.0 mm 0.00 in0.0 mm 0.00 in0.0 mm
02:23 AM 41.4°F5.2°C -39.9°F-39.9°C 1% 3.9 mph WNW6.3 kmh WNW 6.3 mph10.1 kmh 29.28 in991.5 mb 0.00 in0.0 mm 0.00 in0.0 mm 0.00 in0.0 mm
02:22 AM 41.4°F5.2°C -39.9°F-39.9°C 1% 3.7 mph WNW6.0 kmh WNW 7.0 mph11.3 kmh 29.28 in991.5 mb 0.00 in0.0 mm 0.00 in0.0 mm 0.00 in0.0 mm
02:21 AM 41.4°F5.2°C -39.9°F-39.9°C 1% 2.5 mph W4.0 kmh W 7.0 mph11.3 kmh 29.29 in991.9 mb 0.00 in0.0 mm 0.00 in0.0 mm 0.00 in0.0 mm
02:20 AM 41.5°F5.3°C -39.8°F-39.9°C 1% 2.0 mph WSW3.2 kmh WSW 7.0 mph11.3 kmh 29.29 in991.9 mb 0.00 in0.0 mm 0.00 in0.0 mm 0.00 in0.0 mm
02:19 AM 41.4°F5.2°C -39.9°F-39.9°C 1% 2.6 mph W4.2 kmh W 7.0 mph11.3 kmh 29.28 in991.5 mb 0.00 in0.0 mm 0.00 in0.0 mm 0.00 in0.0 mm
02:18 AM 41.4°F5.2°C -39.9°F-39.9°C 1% 3.6 mph W5.8 kmh W 7.0 mph11.3 kmh 29.28 in991.5 mb 0.00 in0.0 mm 0.00 in0.0 mm 0.00 in0.0 mm
02:17 AM 41.4°F5.2°C -39.9°F-39.9°C 1% 4.2 mph WNW6.8 kmh WNW 7.0 mph11.3 kmh 29.28 in991.5 mb 0.00 in0.0 mm 0.00 in0.0 mm 0.00 in0.0 mm
02:16 AM 41.4°F5.2°C -39.9°F-39.9°C 1% 3.8 mph WNW6.1 kmh WNW 7.0 mph11.3 kmh 29.28 in991.5 mb 0.00 in0.0 mm 0.00 in0.0 mm 0.00 in0.0 mm
02:15 AM 41.4°F5.2°C -39.9°F-39.9°C 1% 3.9 mph WNW6.3 kmh WNW 7.0 mph11.3 kmh 29.28 in991.5 mb 0.00 in0.0 mm 0.00 in0.0 mm 0.00 in0.0 mm
02:14 AM 41.4°F5.2°C -39.9°F-39.9°C 1% 4.5 mph W7.2 kmh W 7.0 mph11.3 kmh 29.28 in991.5 mb 0.00 in0.0 mm 0.00 in0.0 mm 0.00 in0.0 mm
02:13 AM 41.4°F5.2°C -39.9°F-39.9°C 1% 4.7 mph WSW7.6 kmh WSW 7.0 mph11.3 kmh 29.28 in991.5 mb 0.00 in0.0 mm 0.00 in0.0 mm 0.00 in0.0 mm
02:12 AM 41.4°F5.2°C -39.9°F-39.9°C 1% 3.8 mph WSW6.1 kmh WSW 7.0 mph11.3 kmh 29.28 in991.5 mb 0.00 in0.0 mm 0.00 in0.0 mm 0.00 in0.0 mm
02:11 AM 41.4°F5.2°C -39.9°F-39.9°C 1% 2.5 mph W4.0 kmh W 6.3 mph10.1 kmh 29.28 in991.5 mb 0.00 in0.0 mm 0.00 in0.0 mm 0.00 in0.0 mm
02:10 AM 41.5°F5.3°C -39.8°F-39.9°C 1% 2.5 mph W4.0 kmh W 5.1 mph8.2 kmh 29.28 in991.5 mb 0.00 in0.0 mm 0.00 in0.0 mm 0.00 in0.0 mm
02:09 AM 41.5°F5.3°C -39.8°F-39.9°C 1% 3.1 mph W5.0 kmh W 5.1 mph8.2 kmh 29.28 in991.5 mb 0.00 in0.0 mm 0.00 in0.0 mm 0.00 in0.0 mm
02:08 AM 41.5°F5.3°C -39.8°F-39.9°C 1% 3.9 mph WNW6.3 kmh WNW 5.1 mph8.2 kmh 29.28 in991.5 mb 0.00 in0.0 mm 0.00 in0.0 mm 0.00 in0.0 mm
02:07 AM 41.5°F5.3°C -39.8°F-39.9°C 1% 4.0 mph W6.4 kmh W 5.1 mph8.2 kmh 29.28 in991.5 mb 0.00 in0.0 mm 0.00 in0.0 mm 0.00 in0.0 mm
02:06 AM 41.7°F5.4°C -39.7°F-39.8°C 1% 3.5 mph W5.6 kmh W 5.1 mph8.2 kmh 29.28 in991.5 mb 0.00 in0.0 mm 0.00 in0.0 mm 0.00 in0.0 mm
02:05 AM 41.7°F5.4°C -39.7°F-39.8°C 1% 2.6 mph WNW4.2 kmh WNW 5.1 mph8.2 kmh 29.28 in991.5 mb 0.00 in0.0 mm 0.00 in0.0 mm 0.00 in0.0 mm
02:04 AM 41.7°F5.4°C -39.7°F-39.8°C 1% 1.8 mph WNW2.9 kmh WNW 4.4 mph7.1 kmh 29.28 in991.5 mb 0.00 in0.0 mm 0.00 in0.0 mm 0.00 in0.0 mm
02:03 AM 41.9°F5.5°C -39.6°F-39.8°C 1% 1.8 mph WNW2.9 kmh WNW 4.4 mph7.1 kmh 29.28 in991.5 mb 0.00 in0.0 mm 0.00 in0.0 mm 0.00 in0.0 mm
02:02 AM 41.9°F5.5°C -39.6°F-39.8°C 1% 2.2 mph W3.5 kmh W 4.7 mph7.6 kmh 29.28 in991.5 mb 0.00 in0.0 mm 0.00 in0.0 mm 0.00 in0.0 mm
02:01 AM 41.9°F5.5°C -39.6°F-39.8°C 1% 2.6 mph W4.2 kmh W 6.3 mph10.1 kmh 29.28 in991.5 mb 0.00 in0.0 mm 0.00 in0.0 mm 0.00 in0.0 mm
02:00 AM 41.9°F5.5°C -39.6°F-39.8°C 1% 2.0 mph W3.2 kmh W 7.0 mph11.3 kmh 29.28 in991.5 mb 0.00 in0.0 mm 0.00 in0.0 mm 0.00 in0.0 mm
01:59 AM 41.9°F5.5°C -39.6°F-39.8°C 1% 2.0 mph W3.2 kmh W 7.0 mph11.3 kmh 29.28 in991.5 mb 0.00 in0.0 mm 0.00 in0.0 mm 0.00 in0.0 mm
01:58 AM 42.1°F5.6°C -39.5°F-39.7°C 1% 2.7 mph WNW4.3 kmh WNW 7.0 mph11.3 kmh 29.28 in991.5 mb 0.00 in0.0 mm 0.00 in0.0 mm 0.00 in0.0 mm
01:57 AM 42.1°F5.6°C -39.5°F-39.7°C 1% 2.4 mph WNW3.9 kmh WNW 7.0 mph11.3 kmh 29.28 in991.5 mb 0.00 in0.0 mm 0.00 in0.0 mm 0.00 in0.0 mm
01:56 AM 42.3°F5.7°C -39.3°F-39.6°C 1% 2.1 mph WSW3.4 kmh WSW 7.0 mph11.3 kmh 29.28 in991.5 mb 0.00 in0.0 mm 0.00 in0.0 mm 0.00 in0.0 mm
01:55 AM 42.3°F5.7°C -39.3°F-39.6°C 1% 2.9 mph WSW4.7 kmh WSW 8.9 mph14.3 kmh 29.28 in991.5 mb 0.00 in0.0 mm 0.00 in0.0 mm 0.00 in0.0 mm
01:54 AM 42.3°F5.7°C -39.3°F-39.6°C 1% 3.1 mph WSW5.0 kmh WSW 8.9 mph14.3 kmh 29.28 in991.5 mb 0.00 in0.0 mm 0.00 in0.0 mm 0.00 in0.0 mm
01:53 AM 42.4°F5.8°C -39.3°F-39.6°C 1% 3.3 mph WSW5.3 kmh WSW 8.9 mph14.3 kmh 29.28 in991.5 mb 0.00 in0.0 mm 0.00 in0.0 mm 0.00 in0.0 mm
01:52 AM 42.4°F5.8°C -39.3°F-39.6°C 1% 4.3 mph WSW6.9 kmh WSW 8.9 mph14.3 kmh 29.28 in991.5 mb 0.00 in0.0 mm 0.00 in0.0 mm 0.00 in0.0 mm
01:51 AM 42.4°F5.8°C -39.3°F-39.6°C 1% 4.5 mph WSW7.2 kmh WSW 8.9 mph14.3 kmh 29.28 in991.5 mb 0.00 in0.0 mm 0.00 in0.0 mm 0.00 in0.0 mm
01:50 AM 42.4°F5.8°C -39.3°F-39.6°C 1% 3.2 mph WSW5.1 kmh WSW 8.9 mph14.3 kmh 29.28 in991.5 mb 0.00 in0.0 mm 0.00 in0.0 mm 0.00 in0.0 mm
01:49 AM 42.6°F5.9°C -39.1°F-39.5°C 1% 3.4 mph WSW5.5 kmh WSW 8.9 mph14.3 kmh 29.28 in991.5 mb 0.00 in0.0 mm 0.00 in0.0 mm 0.00 in0.0 mm
01:48 AM 42.6°F5.9°C -39.1°F-39.5°C 1% 3.7 mph WSW6.0 kmh WSW 8.9 mph14.3 kmh 29.28 in991.5 mb 0.00 in0.0 mm 0.00 in0.0 mm 0.00 in0.0 mm
01:47 AM 42.6°F5.9°C -39.1°F-39.5°C 1% 4.0 mph WSW6.4 kmh WSW 8.9 mph14.3 kmh 29.28 in991.5 mb 0.00 in0.0 mm 0.00 in0.0 mm 0.00 in0.0 mm
01:46 AM 42.6°F5.9°C -39.1°F-39.5°C 1% 4.5 mph WSW7.2 kmh WSW 8.9 mph14.3 kmh 29.28 in991.5 mb 0.00 in0.0 mm 0.00 in0.0 mm 0.00 in0.0 mm
01:45 AM 42.6°F5.9°C -39.1°F-39.5°C 1% 4.5 mph W7.2 kmh W 8.9 mph14.3 kmh 29.28 in991.5 mb 0.00 in0.0 mm 0.00 in0.0 mm 0.00 in0.0 mm
01:44 AM 42.8°F6.0°C -39.0°F-39.4°C 1% 3.4 mph W5.5 kmh W 8.9 mph14.3 kmh 29.28 in991.5 mb 0.00 in0.0 mm 0.00 in0.0 mm 0.00 in0.0 mm
01:43 AM 42.8°F6.0°C -39.0°F-39.4°C 1% 3.1 mph W5.0 kmh W 8.9 mph14.3 kmh 29.27 in991.2 mb 0.00 in0.0 mm 0.00 in0.0 mm 0.00 in0.0 mm
01:42 AM 42.8°F6.0°C -39.0°F-39.4°C 1% 3.5 mph WSW5.6 kmh WSW 8.9 mph14.3 kmh 29.27 in991.2 mb 0.00 in0.0 mm 0.00 in0.0 mm 0.00 in0.0 mm
01:41 AM 42.8°F6.0°C -39.0°F-39.4°C 1% 4.0 mph WSW6.4 kmh WSW 8.9 mph14.3 kmh 29.27 in991.2 mb 0.00 in0.0 mm 0.00 in0.0 mm 0.00 in0.0 mm
01:40 AM 42.8°F6.0°C -39.0°F-39.4°C 1% 5.0 mph WSW8.0 kmh WSW 8.9 mph14.3 kmh 29.27 in991.2 mb 0.00 in0.0 mm 0.00 in0.0 mm 0.00 in0.0 mm
01:39 AM 42.8°F6.0°C -39.0°F-39.4°C 1% 4.7 mph W7.6 kmh W 8.9 mph14.3 kmh 29.27 in991.2 mb 0.00 in0.0 mm 0.00 in0.0 mm 0.00 in0.0 mm
01:38 AM 42.8°F6.0°C -39.0°F-39.4°C 1% 4.3 mph W6.9 kmh W 8.9 mph14.3 kmh 29.27 in991.2 mb 0.00 in0.0 mm 0.00 in0.0 mm 0.00 in0.0 mm
01:37 AM 42.8°F6.0°C -39.0°F-39.4°C 1% 4.5 mph WSW7.2 kmh WSW 8.9 mph14.3 kmh 29.27 in991.2 mb 0.00 in0.0 mm 0.00 in0.0 mm 0.00 in0.0 mm
01:36 AM 42.8°F6.0°C -39.0°F-39.4°C 1% 5.7 mph WSW9.2 kmh WSW 8.9 mph14.3 kmh 29.27 in991.2 mb 0.00 in0.0 mm 0.00 in0.0 mm 0.00 in0.0 mm
01:35 AM 42.8°F6.0°C -39.0°F-39.4°C 1% 5.5 mph W8.9 kmh W 9.4 mph15.1 kmh 29.27 in991.2 mb 0.00 in0.0 mm 0.00 in0.0 mm 0.00 in0.0 mm
01:34 AM 42.6°F5.9°C -39.1°F-39.5°C 1% 4.6 mph WSW7.4 kmh WSW 9.4 mph15.1 kmh 29.27 in991.2 mb 0.00 in0.0 mm 0.00 in0.0 mm 0.00 in0.0 mm
01:33 AM 42.6°F5.9°C -39.1°F-39.5°C 1% 3.9 mph WSW6.3 kmh WSW 9.4 mph15.1 kmh 29.27 in991.2 mb 0.00 in0.0 mm 0.00 in0.0 mm 0.00 in0.0 mm
01:32 AM 42.6°F5.9°C -39.1°F-39.5°C 1% 3.3 mph WSW5.3 kmh WSW 9.4 mph15.1 kmh 29.27 in991.2 mb 0.00 in0.0 mm 0.00 in0.0 mm 0.00 in0.0 mm
01:31 AM 42.6°F5.9°C -39.1°F-39.5°C 1% 3.9 mph WSW6.3 kmh WSW 9.4 mph15.1 kmh 29.27 in991.2 mb 0.00 in0.0 mm 0.00 in0.0 mm 0.00 in0.0 mm
01:30 AM 42.6°F5.9°C -39.1°F-39.5°C 1% 3.5 mph WSW5.6 kmh WSW 9.4 mph15.1 kmh 29.27 in991.2 mb 0.00 in0.0 mm 0.00 in0.0 mm 0.00 in0.0 mm
01:29 AM 42.6°F5.9°C -39.1°F-39.5°C 1% 3.0 mph WSW4.8 kmh WSW 9.4 mph15.1 kmh 29.27 in991.2 mb 0.00 in0.0 mm 0.00 in0.0 mm 0.00 in0.0 mm
01:28 AM 42.6°F5.9°C -39.1°F-39.5°C 1% 2.8 mph WSW4.5 kmh WSW 9.4 mph15.1 kmh 29.27 in991.2 mb 0.00 in0.0 mm 0.00 in0.0 mm 0.00 in0.0 mm
01:27 AM 42.6°F5.9°C -39.1°F-39.5°C 1% 4.2 mph WSW6.8 kmh WSW 9.4 mph15.1 kmh 29.27 in991.2 mb 0.00 in0.0 mm 0.00 in0.0 mm 0.00 in0.0 mm
01:26 AM 42.6°F5.9°C -39.1°F-39.5°C 1% 4.4 mph WSW7.1 kmh WSW 9.4 mph15.1 kmh 29.27 in991.2 mb 0.00 in0.0 mm 0.00 in0.0 mm 0.00 in0.0 mm
01:25 AM 42.4°F5.8°C -39.3°F-39.6°C 1% 3.7 mph W6.0 kmh W 7.0 mph11.3 kmh 29.27 in991.2 mb 0.00 in0.0 mm 0.00 in0.0 mm 0.00 in0.0 mm
01:24 AM 42.4°F5.8°C -39.3°F-39.6°C 1% 4.5 mph WSW7.2 kmh WSW 7.0 mph11.3 kmh 29.27 in991.2 mb 0.00 in0.0 mm 0.00 in0.0 mm 0.00 in0.0 mm
01:23 AM 42.4°F5.8°C -39.3°F-39.6°C 1% 4.5 mph WSW7.2 kmh WSW 7.0 mph11.3 kmh 29.27 in991.2 mb 0.00 in0.0 mm 0.00 in0.0 mm 0.00 in0.0 mm
01:22 AM 42.6°F5.9°C -39.1°F-39.5°C 1% 3.2 mph WSW5.1 kmh WSW 7.0 mph11.3 kmh 29.27 in991.2 mb 0.00 in0.0 mm 0.00 in0.0 mm 0.00 in0.0 mm
01:21 AM 42.4°F5.8°C -39.3°F-39.6°C 1% 3.1 mph WSW5.0 kmh WSW 7.0 mph11.3 kmh 29.27 in991.2 mb 0.00 in0.0 mm 0.00 in0.0 mm 0.00 in0.0 mm
01:20 AM 42.4°F5.8°C -39.3°F-39.6°C 1% 3.4 mph WSW5.5 kmh WSW 7.0 mph11.3 kmh 29.27 in991.2 mb 0.00 in0.0 mm 0.00 in0.0 mm 0.00 in0.0 mm
01:19 AM 42.6°F5.9°C -39.1°F-39.5°C 1% 2.6 mph W4.2 kmh W 6.0 mph9.7 kmh 29.27 in991.2 mb 0.00 in0.0 mm 0.00 in0.0 mm 0.00 in0.0 mm
01:18 AM 42.6°F5.9°C -39.1°F-39.5°C 1% 2.8 mph W4.5 kmh W 6.0 mph9.7 kmh 29.27 in991.2 mb 0.00 in0.0 mm 0.00 in0.0 mm 0.00 in0.0 mm
01:17 AM 42.6°F5.9°C -39.1°F-39.5°C 1% 3.5 mph W5.6 kmh W 6.0 mph9.7 kmh 29.27 in991.2 mb 0.00 in0.0 mm 0.00 in0.0 mm 0.00 in0.0 mm
01:16 AM 42.6°F5.9°C -39.1°F-39.5°C 1% 3.3 mph W5.3 kmh W 6.0 mph9.7 kmh 29.27 in991.2 mb 0.00 in0.0 mm 0.00 in0.0 mm 0.00 in0.0 mm
01:15 AM 42.6°F5.9°C -39.1°F-39.5°C 1% 2.3 mph WSW3.7 kmh WSW 6.0 mph9.7 kmh 29.27 in991.2 mb 0.00 in0.0 mm 0.00 in0.0 mm 0.00 in0.0 mm
01:14 AM 42.8°F6.0°C -39.0°F-39.4°C 1% 1.6 mph WSW2.6 kmh WSW 5.1 mph8.2 kmh 29.27 in991.2 mb 0.00 in0.0 mm 0.00 in0.0 mm 0.00 in0.0 mm
01:13 AM 42.8°F6.0°C -39.0°F-39.4°C 1% 1.6 mph WSW2.6 kmh WSW 5.1 mph8.2 kmh 29.27 in991.2 mb 0.00 in0.0 mm 0.00 in0.0 mm 0.00 in0.0 mm
01:12 AM 43.0°F6.1°C -38.9°F-39.4°C 1% 1.5 mph WSW2.4 kmh WSW 5.1 mph8.2 kmh 29.27 in991.2 mb 0.00 in0.0 mm 0.00 in0.0 mm 0.00 in0.0 mm
01:11 AM 43.0°F6.1°C -38.9°F-39.4°C 1% 1.9 mph WSW3.1 kmh WSW 5.1 mph8.2 kmh 29.27 in991.2 mb 0.00 in0.0 mm 0.00 in0.0 mm 0.00 in0.0 mm
01:10 AM 43.0°F6.1°C -38.9°F-39.4°C 1% 1.7 mph WSW2.7 kmh WSW 5.1 mph8.2 kmh 29.27 in991.2 mb 0.00 in0.0 mm 0.00 in0.0 mm 0.00 in0.0 mm
01:09 AM 43.0°F6.1°C -38.9°F-39.4°C 1% 1.4 mph WSW2.3 kmh WSW 5.1 mph8.2 kmh 29.27 in991.2 mb 0.00 in0.0 mm 0.00 in0.0 mm 0.00 in0.0 mm
01:08 AM 43.2°F6.2°C -38.8°F-39.3°C 1% 1.5 mph WSW2.4 kmh WSW 5.1 mph8.2 kmh 29.27 in991.2 mb 0.00 in0.0 mm 0.00 in0.0 mm 0.00 in0.0 mm
01:07 AM 43.2°F6.2°C -38.8°F-39.3°C 1% 1.7 mph WSW2.7 kmh WSW 5.1 mph8.2 kmh 29.27 in991.2 mb 0.00 in0.0 mm 0.00 in0.0 mm 0.00 in0.0 mm
01:06 AM 43.3°F6.3°C -38.7°F-39.3°C 1% 2.4 mph WSW3.9 kmh WSW 5.1 mph8.2 kmh 29.27 in991.2 mb 0.00 in0.0 mm 0.00 in0.0 mm 0.00 in0.0 mm
01:05 AM 43.3°F6.3°C -38.7°F-39.3°C 1% 2.1 mph WSW3.4 kmh WSW 7.0 mph11.3 kmh 29.27 in991.2 mb 0.00 in0.0 mm 0.00 in0.0 mm 0.00 in0.0 mm
01:04 AM 43.3°F6.3°C -38.7°F-39.3°C 1% 2.0 mph WSW3.2 kmh WSW 7.0 mph11.3 kmh 29.27 in991.2 mb 0.00 in0.0 mm 0.00 in0.0 mm 0.00 in0.0 mm
01:03 AM 43.5°F6.4°C -38.6°F-39.2°C 1% 2.1 mph W3.4 kmh W 7.0 mph11.3 kmh 29.27 in991.2 mb 0.00 in0.0 mm 0.00 in0.0 mm 0.00 in0.0 mm
01:02 AM 43.5°F6.4°C -38.6°F-39.2°C 1% 2.9 mph W4.7 kmh W 7.0 mph11.3 kmh 29.27 in991.2 mb 0.00 in0.0 mm 0.00 in0.0 mm 0.00 in0.0 mm
01:01 AM 43.5°F6.4°C -38.6°F-39.2°C 1% 3.2 mph W5.1 kmh W 7.0 mph11.3 kmh 29.27 in991.2 mb 0.00 in0.0 mm 0.00 in0.0 mm 0.00 in0.0 mm
01:00 AM 43.5°F6.4°C -38.6°F-39.2°C 1% 2.9 mph W4.7 kmh W 7.0 mph11.3 kmh 29.27 in991.2 mb 0.00 in0.0 mm 0.00 in0.0 mm 0.00 in0.0 mm
12:59 AM 43.5°F6.4°C -38.6°F-39.2°C 1% 2.9 mph W4.7 kmh W 7.0 mph11.3 kmh 29.27 in991.2 mb 0.00 in0.0 mm 0.00 in0.0 mm 0.00 in0.0 mm
12:58 AM 43.5°F6.4°C -38.6°F-39.2°C 1% 2.8 mph W4.5 kmh W 7.0 mph11.3 kmh 29.26 in990.9 mb 0.00 in0.0 mm 0.00 in0.0 mm 0.00 in0.0 mm
12:57 AM 43.5°F6.4°C -38.6°F-39.2°C 1% 3.4 mph W5.5 kmh W 7.0 mph11.3 kmh 29.26 in990.9 mb 0.00 in0.0 mm 0.00 in0.0 mm 0.00 in0.0 mm
12:56 AM 43.5°F6.4°C -38.6°F-39.2°C 1% 3.4 mph W5.5 kmh W 7.0 mph11.3 kmh 29.26 in990.9 mb 0.00 in0.0 mm 0.00 in0.0 mm 0.00 in0.0 mm
12:55 AM 43.5°F6.4°C -38.6°F-39.2°C 1% 3.3 mph W5.3 kmh W 7.0 mph11.3 kmh 29.26 in990.9 mb 0.00 in0.0 mm 0.00 in0.0 mm 0.00 in0.0 mm
12:54 AM 43.7°F6.5°C -38.4°F-39.1°C 1% 4.1 mph WSW6.6 kmh WSW 7.0 mph11.3 kmh 29.26 in990.9 mb 0.00 in0.0 mm 0.00 in0.0 mm 0.00 in0.0 mm
12:53 AM 43.5°F6.4°C -38.6°F-39.2°C 1% 4.3 mph WSW6.9 kmh WSW 7.0 mph11.3 kmh 29.26 in990.9 mb 0.00 in0.0 mm 0.00 in0.0 mm 0.00 in0.0 mm
12:52 AM 43.5°F6.4°C -38.6°F-39.2°C 1% 2.7 mph WSW4.3 kmh WSW 7.0 mph11.3 kmh 29.26 in990.9 mb 0.00 in0.0 mm 0.00 in0.0 mm 0.00 in0.0 mm
12:51 AM 43.5°F6.4°C -38.6°F-39.2°C 1% 2.3 mph WSW3.7 kmh WSW 4.7 mph7.6 kmh 29.26 in990.9 mb 0.00 in0.0 mm 0.00 in0.0 mm 0.00 in0.0 mm
12:50 AM 43.5°F6.4°C -38.6°F-39.2°C 1% 2.8 mph WSW4.5 kmh WSW 4.7 mph7.6 kmh 29.26 in990.9 mb 0.00 in0.0 mm 0.00 in0.0 mm 0.00 in0.0 mm
12:49 AM 43.5°F6.4°C -38.6°F-39.2°C 1% 2.9 mph WSW4.7 kmh WSW 4.7 mph7.6 kmh 29.26 in990.9 mb 0.00 in0.0 mm 0.00 in0.0 mm 0.00 in0.0 mm
12:48 AM 43.7°F6.5°C -38.4°F-39.1°C 1% 3.1 mph WSW5.0 kmh WSW 4.7 mph7.6 kmh 29.26 in990.9 mb 0.00 in0.0 mm 0.00 in0.0 mm 0.00 in0.0 mm
12:47 AM 43.7°F6.5°C -38.4°F-39.1°C 1% 2.8 mph WSW4.5 kmh WSW 4.7 mph7.6 kmh 29.26 in990.9 mb 0.00 in0.0 mm 0.00 in0.0 mm 0.00 in0.0 mm
12:46 AM 43.7°F6.5°C -38.4°F-39.1°C 1% 2.9 mph WSW4.7 kmh WSW 4.7 mph7.6 kmh 29.26 in990.9 mb 0.00 in0.0 mm 0.00 in0.0 mm 0.00 in0.0 mm
12:45 AM 43.7°F6.5°C -38.4°F-39.1°C 1% 2.8 mph W4.5 kmh W 4.7 mph7.6 kmh 29.26 in990.9 mb 0.00 in0.0 mm 0.00 in0.0 mm 0.00 in0.0 mm
12:44 AM 43.7°F6.5°C -38.4°F-39.1°C 1% 2.7 mph WSW4.3 kmh WSW 6.0 mph9.7 kmh 29.26 in990.9 mb 0.00 in0.0 mm 0.00 in0.0 mm 0.00 in0.0 mm
12:43 AM 43.7°F6.5°C -38.4°F-39.1°C 1% 2.5 mph WSW4.0 kmh WSW 6.0 mph9.7 kmh 29.26 in990.9 mb 0.00 in0.0 mm 0.00 in0.0 mm 0.00 in0.0 mm
12:42 AM 43.7°F6.5°C -38.4°F-39.1°C 1% 2.3 mph SW3.7 kmh SW 6.0 mph9.7 kmh 29.26 in990.9 mb 0.00 in0.0 mm 0.00 in0.0 mm 0.00 in0.0 mm
12:41 AM 43.8°F6.6°C -38.3°F-39.1°C 1% 2.1 mph SW3.4 kmh SW 6.0 mph9.7 kmh 29.26 in990.9 mb 0.00 in0.0 mm 0.00 in0.0 mm 0.00 in0.0 mm
12:40 AM 43.8°F6.6°C -38.3°F-39.1°C 1% 2.4 mph SW3.9 kmh SW 6.0 mph9.7 kmh 29.26 in990.9 mb 0.00 in0.0 mm 0.00 in0.0 mm 0.00 in0.0 mm
12:39 AM 43.8°F6.6°C -38.3°F-39.1°C 1% 2.5 mph WSW4.0 kmh WSW 6.0 mph9.7 kmh 29.26 in990.9 mb 0.00 in0.0 mm 0.00 in0.0 mm 0.00 in0.0 mm
12:38 AM 43.8°F6.6°C -38.3°F-39.1°C 1% 2.0 mph WSW3.2 kmh WSW 6.0 mph9.7 kmh 29.26 in990.9 mb 0.00 in0.0 mm 0.00 in0.0 mm 0.00 in0.0 mm
12:37 AM 44.0°F6.7°C -38.2°F-39.0°C 1% 1.8 mph SW2.9 kmh SW 6.0 mph9.7 kmh 29.26 in990.9 mb 0.00 in0.0 mm 0.00 in0.0 mm 0.00 in0.0 mm
12:36 AM 44.0°F6.7°C -38.2°F-39.0°C 1% 2.6 mph WSW4.2 kmh WSW 6.0 mph9.7 kmh 29.26 in990.9 mb 0.00 in0.0 mm 0.00 in0.0 mm 0.00 in0.0 mm
12:35 AM 44.0°F6.7°C -38.2°F-39.0°C 1% 3.4 mph WSW5.5 kmh WSW 6.0 mph9.7 kmh 29.26 in990.9 mb 0.00 in0.0 mm 0.00 in0.0 mm 0.00 in0.0 mm
12:34 AM 44.0°F6.7°C -38.2°F-39.0°C 1% 3.0 mph WSW4.8 kmh WSW 6.0 mph9.7 kmh 29.26 in990.9 mb 0.00 in0.0 mm 0.00 in0.0 mm 0.00 in0.0 mm
12:33 AM 44.0°F6.7°C -38.2°F-39.0°C 1% 2.5 mph WSW4.0 kmh WSW 6.0 mph9.7 kmh 29.26 in990.9 mb 0.00 in0.0 mm 0.00 in0.0 mm 0.00 in0.0 mm
12:32 AM 44.1°F6.7°C -38.1°F-38.9°C 1% 3.0 mph WSW4.8 kmh WSW 5.1 mph8.2 kmh 29.25 in990.5 mb 0.00 in0.0 mm 0.00 in0.0 mm 0.00 in0.0 mm
12:31 AM 44.1°F6.7°C -38.1°F-38.9°C 1% 3.2 mph WSW5.1 kmh WSW 5.1 mph8.2 kmh 29.25 in990.5 mb 0.00 in0.0 mm 0.00 in0.0 mm 0.00 in0.0 mm
12:30 AM 44.1°F6.7°C -38.1°F-38.9°C 1% 2.6 mph WSW4.2 kmh WSW 4.4 mph7.1 kmh 29.25 in990.5 mb 0.00 in0.0 mm 0.00 in0.0 mm 0.00 in0.0 mm
12:29 AM 44.1°F6.7°C -38.1°F-38.9°C 1% 2.4 mph SW3.9 kmh SW 6.0 mph9.7 kmh 29.25 in990.5 mb 0.00 in0.0 mm 0.00 in0.0 mm 0.00 in0.0 mm
12:28 AM 44.1°F6.7°C -38.1°F-38.9°C 1% 2.8 mph WSW4.5 kmh WSW 6.0 mph9.7 kmh 29.25 in990.5 mb 0.00 in0.0 mm 0.00 in0.0 mm 0.00 in0.0 mm
12:27 AM 44.1°F6.7°C -38.1°F-38.9°C 1% 3.1 mph WSW5.0 kmh WSW 6.0 mph9.7 kmh 29.25 in990.5 mb 0.00 in0.0 mm 0.00 in0.0 mm 0.00 in0.0 mm
12:26 AM 44.1°F6.7°C -38.1°F-38.9°C 1% 2.6 mph WSW4.2 kmh WSW 6.0 mph9.7 kmh 29.25 in990.5 mb 0.00 in0.0 mm 0.00 in0.0 mm 0.00 in0.0 mm
12:25 AM 44.1°F6.7°C -38.1°F-38.9°C 1% 2.5 mph SW4.0 kmh SW 6.0 mph9.7 kmh 29.25 in990.5 mb 0.00 in0.0 mm 0.00 in0.0 mm 0.00 in0.0 mm
12:24 AM 44.3°F6.8°C -38.0°F-38.9°C 1% 2.6 mph SW4.2 kmh SW 6.0 mph9.7 kmh 29.25 in990.5 mb 0.00 in0.0 mm 0.00 in0.0 mm 0.00 in0.0 mm
12:23 AM 44.3°F6.8°C -38.0°F-38.9°C 1% 2.5 mph W4.0 kmh W 6.0 mph9.7 kmh 29.25 in990.5 mb 0.00 in0.0 mm 0.00 in0.0 mm 0.00 in0.0 mm
12:22 AM 44.3°F6.8°C -38.0°F-38.9°C 1% 2.9 mph WSW4.7 kmh WSW 6.0 mph9.7 kmh 29.25 in990.5 mb 0.00 in0.0 mm 0.00 in0.0 mm 0.00 in0.0 mm
12:21 AM 44.3°F6.8°C -38.0°F-38.9°C 1% 3.1 mph WSW5.0 kmh WSW 6.0 mph9.7 kmh 29.25 in990.5 mb 0.00 in0.0 mm 0.00 in0.0 mm 0.00 in0.0 mm
12:20 AM 44.3°F6.8°C -38.0°F-38.9°C 1% 3.4 mph W5.5 kmh W 6.0 mph9.7 kmh 29.25 in990.5 mb 0.00 in0.0 mm 0.00 in0.0 mm 0.00 in0.0 mm
12:19 AM 44.3°F6.8°C -38.0°F-38.9°C 1% 3.3 mph W5.3 kmh W 7.0 mph11.3 kmh 29.25 in990.5 mb 0.00 in0.0 mm 0.00 in0.0 mm 0.00 in0.0 mm
12:18 AM 44.3°F6.8°C -38.0°F-38.9°C 1% 2.8 mph WSW4.5 kmh WSW 7.0 mph11.3 kmh 29.25 in990.5 mb 0.00 in0.0 mm 0.00 in0.0 mm 0.00 in0.0 mm
12:17 AM 44.5°F6.9°C -37.9°F-38.8°C 1% 3.3 mph WSW5.3 kmh WSW 7.0 mph11.3 kmh 29.25 in990.5 mb 0.00 in0.0 mm 0.00 in0.0 mm 0.00 in0.0 mm
12:16 AM 44.5°F6.9°C -37.9°F-38.8°C 1% 3.4 mph WSW5.5 kmh WSW 7.0 mph11.3 kmh 29.25 in990.5 mb 0.00 in0.0 mm 0.00 in0.0 mm 0.00 in0.0 mm
12:15 AM 44.5°F6.9°C -37.9°F-38.8°C 1% 3.2 mph WSW5.1 kmh WSW 7.0 mph11.3 kmh 29.25 in990.5 mb 0.00 in0.0 mm 0.00 in0.0 mm 0.00 in0.0 mm
12:14 AM 44.5°F6.9°C -37.9°F-38.8°C 1% 3.0 mph WSW4.8 kmh WSW 7.0 mph11.3 kmh 29.25 in990.5 mb 0.00 in0.0 mm 0.00 in0.0 mm 0.00 in0.0 mm
12:13 AM 44.5°F6.9°C -37.9°F-38.8°C 1% 3.2 mph WSW5.1 kmh WSW 7.0 mph11.3 kmh 29.25 in990.5 mb 0.00 in0.0 mm 0.00 in0.0 mm 0.00 in0.0 mm
12:12 AM 44.7°F7.1°C -37.7°F-38.7°C 1% 3.0 mph WSW4.8 kmh WSW 7.0 mph11.3 kmh 29.25 in990.5 mb 0.00 in0.0 mm 0.00 in0.0 mm 0.00 in0.0 mm
12:11 AM 44.7°F7.1°C -37.7°F-38.7°C 1% 3.3 mph WSW5.3 kmh WSW 7.0 mph11.3 kmh 29.25 in990.5 mb 0.00 in0.0 mm 0.00 in0.0 mm 0.00 in0.0 mm
12:10 AM 44.7°F7.1°C -37.7°F-38.7°C 1% 3.2 mph WSW5.1 kmh WSW 7.0 mph11.3 kmh 29.25 in990.5 mb 0.00 in0.0 mm 0.00 in0.0 mm 0.00 in0.0 mm
12:09 AM 44.7°F7.1°C -37.7°F-38.7°C 1% 2.5 mph WSW4.0 kmh WSW 6.0 mph9.7 kmh 29.25 in990.5 mb 0.00 in0.0 mm 0.00 in0.0 mm 0.00 in0.0 mm
12:08 AM 44.7°F7.1°C -37.7°F-38.7°C 1% 3.0 mph WSW4.8 kmh WSW 6.0 mph9.7 kmh 29.25 in990.5 mb 0.00 in0.0 mm 0.00 in0.0 mm 0.00 in0.0 mm
12:07 AM 44.9°F7.2°C -37.6°F-38.7°C 1% 3.3 mph WSW5.3 kmh WSW 7.0 mph11.3 kmh 29.25 in990.5 mb 0.00 in0.0 mm 0.00 in0.0 mm 0.00 in0.0 mm
12:06 AM 44.9°F7.2°C -37.6°F-38.7°C 1% 3.1 mph WSW5.0 kmh WSW 7.0 mph11.3 kmh 29.25 in990.5 mb 0.00 in0.0 mm 0.00 in0.0 mm 0.00 in0.0 mm
12:05 AM 44.9°F7.2°C -37.6°F-38.7°C 1% 2.9 mph WSW4.7 kmh WSW 7.0 mph11.3 kmh 29.24 in990.2 mb 0.00 in0.0 mm 0.00 in0.0 mm 0.00 in0.0 mm
12:04 AM 44.9°F7.2°C -37.6°F-38.7°C 1% 3.0 mph WSW4.8 kmh WSW 7.0 mph11.3 kmh 29.25 in990.5 mb 0.00 in0.0 mm 0.00 in0.0 mm 0.00 in0.0 mm
12:03 AM 44.9°F7.2°C -37.6°F-38.7°C 1% 3.1 mph WSW5.0 kmh WSW 7.0 mph11.3 kmh 29.25 in990.5 mb 0.00 in0.0 mm 0.00 in0.0 mm 0.00 in0.0 mm
12:02 AM 44.9°F7.2°C -37.6°F-38.7°C 1% 2.6 mph WSW4.2 kmh WSW 7.0 mph11.3 kmh 29.25 in990.5 mb 0.00 in0.0 mm 0.00 in0.0 mm 0.00 in0.0 mm
12:01 AM 45.0°F7.2°C -37.6°F-38.7°C 1% 2.8 mph WSW4.5 kmh WSW 7.0 mph11.3 kmh 29.25 in990.5 mb 0.00 in0.0 mm 0.00 in0.0 mm 0.00 in0.0 mm
12:00 AM 45.0°F7.2°C -37.6°F-38.7°C 1% 3.2 mph SW5.1 kmh SW 7.0 mph11.3 kmh 29.25 in990.5 mb 0.00 in0.0 mm 0.00 in0.0 mm 0.00 in0.0 mm